Madsen, Utah
Current Conditions -  °F | °C
As of 10:35 PM on Tuesday 21 Oct 2014 (Local Time) from KBMC Reporting Station
Clear Clear  
Wind Chill: 45°   Ceiling: Unl
Heat Index: 47°   Visibility: 10mi
Dew Point: 31°   Wind: 6mph
Humidity: 53%   Direction: 260°W
Pressure: 30.09"   Gusts: NA
Location:  41.6146°N, 112.071°W
Report Text: KBMC 220435Z AUTO 26005KT 10SM CLR 09/M01 A3009 RMK AO1 T00851007
Loading
Personal Weather Stations






























Interactive Weather Map
Tropical Storm Tracking
New forecast layout! Learn more

10-Day Weather Forecast

Advertisements
Track Severe Weather on mobile